sensor_id;sensor_type;location;lat;lon;timestamp;P1;durP1;ratioP1;P2;durP2;ratioP2
283;SDS011;125;52.516;13.426;2023-05-23T00:01:13;1.20;;;0.73;;
283;SDS011;125;52.516;13.426;2023-05-23T00:03:42;1.20;;;1.00;;
283;SDS011;125;52.516;13.426;2023-05-23T00:06:09;1.10;;;0.70;;
283;SDS011;125;52.516;13.426;2023-05-23T00:08:37;0.90;;;0.80;;
283;SDS011;125;52.516;13.426;2023-05-23T00:11:04;1.50;;;1.47;;
283;SDS011;125;52.516;13.426;2023-05-23T00:13:31;1.77;;;1.23;;
283;SDS011;125;52.516;13.426;2023-05-23T00:15:58;2.23;;;2.07;;
283;SDS011;125;52.516;13.426;2023-05-23T00:18:28;1.43;;;1.33;;
283;SDS011;125;52.516;13.426;2023-05-23T00:20:56;1.10;;;0.70;;
283;SDS011;125;52.516;13.426;2023-05-23T00:23:23;1.33;;;1.10;;
283;SDS011;125;52.516;13.426;2023-05-23T00:25:51;1.00;;;0.57;;
283;SDS011;125;52.516;13.426;2023-05-23T00:28:18;1.40;;;0.87;;
283;SDS011;125;52.516;13.426;2023-05-23T00:30:45;1.53;;;0.70;;
283;SDS011;125;52.516;13.426;2023-05-23T00:33:12;1.90;;;0.97;;
283;SDS011;125;52.516;13.426;2023-05-23T00:35:40;1.40;;;0.83;;
283;SDS011;125;52.516;13.426;2023-05-23T00:38:07;2.00;;;1.90;;
283;SDS011;125;52.516;13.426;2023-05-23T00:40:35;1.00;;;0.60;;
283;SDS011;125;52.516;13.426;2023-05-23T00:43:03;1.30;;;1.00;;
283;SDS011;125;52.516;13.426;2023-05-23T00:45:32;1.37;;;1.07;;
283;SDS011;125;52.516;13.426;2023-05-23T00:47:59;2.90;;;2.13;;
283;SDS011;125;52.516;13.426;2023-05-23T00:50:26;2.23;;;1.50;;
283;SDS011;125;52.516;13.426;2023-05-23T00:52:54;1.43;;;1.07;;
283;SDS011;125;52.516;13.426;2023-05-23T00:55:21;0.80;;;0.43;;
283;SDS011;125;52.516;13.426;2023-05-23T00:57:48;1.40;;;1.10;;
283;SDS011;125;52.516;13.426;2023-05-23T01:00:17;2.23;;;1.50;;
283;SDS011;125;52.516;13.426;2023-05-23T01:02:45;2.53;;;2.33;;
283;SDS011;125;52.516;13.426;2023-05-23T01:05:15;1.27;;;0.90;;
283;SDS011;125;52.516;13.426;2023-05-23T01:07:42;1.97;;;1.87;;
283;SDS011;125;52.516;13.426;2023-05-23T01:10:10;0.90;;;0.60;;
283;SDS011;125;52.516;13.426;2023-05-23T01:12:38;1.13;;;0.70;;
283;SDS011;125;52.516;13.426;2023-05-23T01:15:07;1.57;;;1.13;;
283;SDS011;125;52.516;13.426;2023-05-23T01:17:44;1.53;;;1.17;;
283;SDS011;125;52.516;13.426;2023-05-23T01:20:14;1.63;;;1.53;;
283;SDS011;125;52.516;13.426;2023-05-23T01:22:53;1.00;;;0.70;;
283;SDS011;125;52.516;13.426;2023-05-23T01:25:27;1.20;;;1.10;;
283;SDS011;125;52.516;13.426;2023-05-23T01:27:58;2.40;;;2.27;;
283;SDS011;125;52.516;13.426;2023-05-23T01:30:26;2.00;;;1.90;;
283;SDS011;125;52.516;13.426;2023-05-23T01:32:54;1.17;;;1.13;;
283;SDS011;125;52.516;13.426;2023-05-23T01:35:23;1.00;;;0.93;;
283;SDS011;125;52.516;13.426;2023-05-23T01:37:51;1.23;;;0.73;;
283;SDS011;125;52.516;13.426;2023-05-23T01:40:18;0.83;;;0.50;;
283;SDS011;125;52.516;13.426;2023-05-23T01:42:45;1.00;;;0.50;;
283;SDS011;125;52.516;13.426;2023-05-23T01:45:13;1.67;;;0.83;;
283;SDS011;125;52.516;13.426;2023-05-23T01:47:41;1.43;;;1.33;;
283;SDS011;125;52.516;13.426;2023-05-23T01:50:09;1.80;;;1.77;;
283;SDS011;125;52.516;13.426;2023-05-23T01:52:36;1.10;;;0.97;;
283;SDS011;125;52.516;13.426;2023-05-23T01:55:04;1.10;;;1.07;;
283;SDS011;125;52.516;13.426;2023-05-23T01:57:34;3.03;;;1.23;;
283;SDS011;125;52.516;13.426;2023-05-23T02:00:01;1.30;;;0.87;;
283;SDS011;125;52.516;13.426;2023-05-23T02:02:31;0.90;;;0.60;;
283;SDS011;125;52.516;13.426;2023-05-23T02:04:58;0.90;;;0.50;;
283;SDS011;125;52.516;13.426;2023-05-23T02:07:25;0.90;;;0.67;;
283;SDS011;125;52.516;13.426;2023-05-23T02:09:52;1.93;;;1.07;;
283;SDS011;125;52.516;13.426;2023-05-23T02:12:19;1.77;;;1.43;;
283;SDS011;125;52.516;13.426;2023-05-23T02:14:46;1.10;;;0.80;;
283;SDS011;125;52.516;13.426;2023-05-23T02:17:13;1.00;;;0.73;;
283;SDS011;125;52.516;13.426;2023-05-23T02:19:42;1.67;;;1.60;;
283;SDS011;125;52.516;13.426;2023-05-23T02:22:09;1.63;;;1.53;;
283;SDS011;125;52.516;13.426;2023-05-23T02:24:35;0.90;;;0.50;;
283;SDS011;125;52.516;13.426;2023-05-23T02:27:02;1.67;;;1.57;;
283;SDS011;125;52.516;13.426;2023-05-23T02:29:29;2.20;;;1.00;;
283;SDS011;125;52.516;13.426;2023-05-23T02:31:56;0.90;;;0.70;;
283;SDS011;125;52.516;13.426;2023-05-23T02:34:23;1.30;;;1.27;;
283;SDS011;125;52.516;13.426;2023-05-23T02:36:52;1.00;;;0.90;;
283;SDS011;125;52.516;13.426;2023-05-23T02:39:19;1.27;;;1.13;;
283;SDS011;125;52.516;13.426;2023-05-23T02:41:45;1.87;;;1.27;;
283;SDS011;125;52.516;13.426;2023-05-23T02:44:12;3.47;;;1.47;;
283;SDS011;125;52.516;13.426;2023-05-23T02:46:40;0.90;;;0.67;;
283;SDS011;125;52.516;13.426;2023-05-23T02:49:06;0.93;;;0.67;;
283;SDS011;125;52.516;13.426;2023-05-23T02:51:33;0.90;;;0.50;;
283;SDS011;125;52.516;13.426;2023-05-23T02:54:02;1.60;;;1.50;;
283;SDS011;125;52.516;13.426;2023-05-23T02:56:29;1.10;;;0.60;;
283;SDS011;125;52.516;13.426;2023-05-23T02:58:56;1.00;;;0.80;;
283;SDS011;125;52.516;13.426;2023-05-23T03:01:23;1.30;;;1.00;;
283;SDS011;125;52.516;13.426;2023-05-23T03:03:50;1.37;;;1.33;;
283;SDS011;125;52.516;13.426;2023-05-23T03:06:16;1.30;;;1.23;;
283;SDS011;125;52.516;13.426;2023-05-23T03:08:46;1.30;;;0.97;;
283;SDS011;125;52.516;13.426;2023-05-23T03:11:14;3.93;;;1.30;;
283;SDS011;125;52.516;13.426;2023-05-23T03:13:42;1.20;;;0.70;;
283;SDS011;125;52.516;13.426;2023-05-23T03:16:09;1.10;;;0.77;;
283;SDS011;125;52.516;13.426;2023-05-23T03:18:36;1.30;;;0.93;;
283;SDS011;125;52.516;13.426;2023-05-23T03:21:05;0.90;;;0.60;;
283;SDS011;125;52.516;13.426;2023-05-23T03:23:33;1.10;;;0.67;;
283;SDS011;125;52.516;13.426;2023-05-23T03:26:01;2.50;;;1.90;;
283;SDS011;125;52.516;13.426;2023-05-23T03:28:31;1.40;;;0.97;;
283;SDS011;125;52.516;13.426;2023-05-23T03:30:58;2.40;;;2.20;;
283;SDS011;125;52.516;13.426;2023-05-23T03:33:25;1.17;;;0.77;;
283;SDS011;125;52.516;13.426;2023-05-23T03:35:52;1.50;;;1.23;;
283;SDS011;125;52.516;13.426;2023-05-23T03:38:21;1.00;;;0.70;;
283;SDS011;125;52.516;13.426;2023-05-23T03:40:48;2.13;;;1.23;;
283;SDS011;125;52.516;13.426;2023-05-23T03:43:15;2.27;;;1.80;;
283;SDS011;125;52.516;13.426;2023-05-23T03:45:43;1.60;;;1.40;;
283;SDS011;125;52.516;13.426;2023-05-23T03:48:10;1.30;;;0.60;;
283;SDS011;125;52.516;13.426;2023-05-23T03:50:37;1.03;;;0.80;;
283;SDS011;125;52.516;13.426;2023-05-23T03:53:04;1.50;;;1.27;;
283;SDS011;125;52.516;13.426;2023-05-23T03:55:31;1.33;;;0.87;;
283;SDS011;125;52.516;13.426;2023-05-23T03:57:58;1.27;;;1.23;;
283;SDS011;125;52.516;13.426;2023-05-23T04:00:25;1.10;;;1.10;;
283;SDS011;125;52.516;13.426;2023-05-23T04:02:53;1.20;;;1.03;;
283;SDS011;125;52.516;13.426;2023-05-23T04:05:21;1.40;;;1.13;;
283;SDS011;125;52.516;13.426;2023-05-23T04:07:48;1.60;;;1.43;;
283;SDS011;125;52.516;13.426;2023-05-23T04:10:15;1.20;;;0.90;;
283;SDS011;125;52.516;13.426;2023-05-23T04:12:42;2.33;;;2.13;;
283;SDS011;125;52.516;13.426;2023-05-23T04:15:09;1.40;;;0.93;;
283;SDS011;125;52.516;13.426;2023-05-23T04:17:36;2.03;;;1.90;;
283;SDS011;125;52.516;13.426;2023-05-23T04:20:07;1.33;;;0.97;;
283;SDS011;125;52.516;13.426;2023-05-23T04:22:34;1.00;;;0.77;;
283;SDS011;125;52.516;13.426;2023-05-23T04:25:01;1.20;;;1.00;;
283;SDS011;125;52.516;13.426;2023-05-23T04:27:28;1.10;;;1.03;;
283;SDS011;125;52.516;13.426;2023-05-23T04:29:55;1.20;;;0.93;;
283;SDS011;125;52.516;13.426;2023-05-23T04:32:24;1.27;;;1.07;;
283;SDS011;125;52.516;13.426;2023-05-23T04:34:51;1.63;;;1.03;;
283;SDS011;125;52.516;13.426;2023-05-23T04:37:22;1.03;;;0.90;;
283;SDS011;125;52.516;13.426;2023-05-23T04:39:50;1.07;;;0.83;;
283;SDS011;125;52.516;13.426;2023-05-23T04:42:17;1.50;;;1.40;;
283;SDS011;125;52.516;13.426;2023-05-23T04:44:48;1.30;;;1.10;;
283;SDS011;125;52.516;13.426;2023-05-23T04:47:15;2.67;;;1.30;;
283;SDS011;125;52.516;13.426;2023-05-23T04:49:43;3.90;;;3.70;;
283;SDS011;125;52.516;13.426;2023-05-23T04:52:10;1.53;;;1.17;;
283;SDS011;125;52.516;13.426;2023-05-23T04:54:38;1.53;;;1.10;;
283;SDS011;125;52.516;13.426;2023-05-23T04:57:08;7.03;;;2.03;;
283;SDS011;125;52.516;13.426;2023-05-23T04:59:36;2.33;;;1.37;;
283;SDS011;125;52.516;13.426;2023-05-23T05:02:03;1.87;;;1.70;;
283;SDS011;125;52.516;13.426;2023-05-23T05:04:30;3.23;;;2.77;;
283;SDS011;125;52.516;13.426;2023-05-23T05:06:57;1.63;;;1.53;;
283;SDS011;125;52.516;13.426;2023-05-23T05:09:27;2.83;;;1.53;;
283;SDS011;125;52.516;13.426;2023-05-23T05:11:55;2.33;;;1.57;;
283;SDS011;125;52.516;13.426;2023-05-23T05:14:22;2.40;;;2.20;;
283;SDS011;125;52.516;13.426;2023-05-23T05:16:49;1.10;;;0.80;;
283;SDS011;125;52.516;13.426;2023-05-23T05:19:16;2.90;;;1.73;;
283;SDS011;125;52.516;13.426;2023-05-23T05:21:43;2.70;;;2.50;;
283;SDS011;125;52.516;13.426;2023-05-23T05:24:10;2.23;;;1.43;;
283;SDS011;125;52.516;13.426;2023-05-23T05:26:37;1.37;;;0.87;;
283;SDS011;125;52.516;13.426;2023-05-23T05:29:05;2.07;;;1.90;;
283;SDS011;125;52.516;13.426;2023-05-23T05:31:32;1.03;;;0.80;;
283;SDS011;125;52.516;13.426;2023-05-23T05:34:01;1.20;;;0.93;;
283;SDS011;125;52.516;13.426;2023-05-23T05:36:28;1.50;;;1.40;;
283;SDS011;125;52.516;13.426;2023-05-23T05:38:56;2.10;;;1.63;;
283;SDS011;125;52.516;13.426;2023-05-23T05:41:23;1.07;;;0.70;;
283;SDS011;125;52.516;13.426;2023-05-23T05:43:50;2.70;;;1.27;;
283;SDS011;125;52.516;13.426;2023-05-23T05:46:19;1.93;;;1.83;;
283;SDS011;125;52.516;13.426;2023-05-23T05:48:46;2.83;;;2.63;;
283;SDS011;125;52.516;13.426;2023-05-23T05:51:13;1.27;;;0.83;;
283;SDS011;125;52.516;13.426;2023-05-23T05:53:40;1.67;;;1.07;;
283;SDS011;125;52.516;13.426;2023-05-23T05:56:07;1.90;;;1.80;;
283;SDS011;125;52.516;13.426;2023-05-23T05:58:34;1.03;;;0.77;;
283;SDS011;125;52.516;13.426;2023-05-23T06:01:01;2.50;;;1.40;;
283;SDS011;125;52.516;13.426;2023-05-23T06:03:30;1.40;;;1.07;;
283;SDS011;125;52.516;13.426;2023-05-23T06:05:57;3.77;;;2.60;;
283;SDS011;125;52.516;13.426;2023-05-23T06:08:24;2.43;;;2.03;;
283;SDS011;125;52.516;13.426;2023-05-23T06:10:51;1.70;;;1.43;;
283;SDS011;125;52.516;13.426;2023-05-23T06:13:20;2.60;;;1.70;;
283;SDS011;125;52.516;13.426;2023-05-23T06:15:47;1.77;;;1.67;;
283;SDS011;125;52.516;13.426;2023-05-23T06:18:14;1.37;;;1.27;;
283;SDS011;125;52.516;13.426;2023-05-23T06:20:42;1.37;;;1.00;;
283;SDS011;125;52.516;13.426;2023-05-23T06:23:09;1.10;;;0.87;;
283;SDS011;125;52.516;13.426;2023-05-23T06:25:36;2.60;;;1.13;;
283;SDS011;125;52.516;13.426;2023-05-23T06:28:03;1.40;;;1.07;;
283;SDS011;125;52.516;13.426;2023-05-23T06:30:30;3.30;;;1.53;;
283;SDS011;125;52.516;13.426;2023-05-23T06:32:58;2.43;;;2.27;;
283;SDS011;125;52.516;13.426;2023-05-23T06:35:25;3.67;;;2.13;;
283;SDS011;125;52.516;13.426;2023-05-23T06:37:54;1.00;;;0.60;;
283;SDS011;125;52.516;13.426;2023-05-23T06:40:21;2.17;;;1.47;;
283;SDS011;125;52.516;13.426;2023-05-23T06:42:47;1.17;;;1.13;;
283;SDS011;125;52.516;13.426;2023-05-23T06:45:14;4.03;;;2.53;;
283;SDS011;125;52.516;13.426;2023-05-23T06:47:41;3.07;;;1.77;;
283;SDS011;125;52.516;13.426;2023-05-23T06:50:09;2.37;;;2.17;;
283;SDS011;125;52.516;13.426;2023-05-23T06:52:36;3.73;;;2.17;;
283;SDS011;125;52.516;13.426;2023-05-23T06:55:05;2.43;;;1.43;;
283;SDS011;125;52.516;13.426;2023-05-23T06:57:32;2.60;;;2.33;;
283;SDS011;125;52.516;13.426;2023-05-23T06:59:59;3.03;;;1.50;;
283;SDS011;125;52.516;13.426;2023-05-23T07:02:26;1.97;;;1.50;;
283;SDS011;125;52.516;13.426;2023-05-23T07:04:53;1.50;;;1.23;;
283;SDS011;125;52.516;13.426;2023-05-23T07:07:21;1.57;;;0.97;;
283;SDS011;125;52.516;13.426;2023-05-23T07:09:48;2.43;;;2.10;;
283;SDS011;125;52.516;13.426;2023-05-23T07:12:16;2.13;;;1.97;;
283;SDS011;125;52.516;13.426;2023-05-23T07:14:43;2.50;;;2.00;;
283;SDS011;125;52.516;13.426;2023-05-23T07:17:10;2.03;;;1.37;;
283;SDS011;125;52.516;13.426;2023-05-23T07:19:37;1.73;;;1.57;;
283;SDS011;125;52.516;13.426;2023-05-23T07:22:04;1.97;;;1.57;;
283;SDS011;125;52.516;13.426;2023-05-23T07:24:31;2.17;;;1.73;;
283;SDS011;125;52.516;13.426;2023-05-23T07:26:58;1.97;;;1.40;;
283;SDS011;125;52.516;13.426;2023-05-23T07:29:26;2.88;;;2.05;;
283;SDS011;125;52.516;13.426;2023-05-23T07:31:53;2.43;;;1.50;;
283;SDS011;125;52.516;13.426;2023-05-23T07:34:20;2.00;;;1.93;;
283;SDS011;125;52.516;13.426;2023-05-23T07:36:47;2.83;;;1.90;;
283;SDS011;125;52.516;13.426;2023-05-23T07:39:14;3.10;;;2.90;;
283;SDS011;125;52.516;13.426;2023-05-23T07:41:46;3.13;;;2.30;;
283;SDS011;125;52.516;13.426;2023-05-23T07:44:14;1.57;;;1.40;;
283;SDS011;125;52.516;13.426;2023-05-23T07:46:42;3.10;;;1.80;;
283;SDS011;125;52.516;13.426;2023-05-23T07:49:09;1.87;;;1.83;;
283;SDS011;125;52.516;13.426;2023-05-23T07:51:36;1.63;;;1.00;;
283;SDS011;125;52.516;13.426;2023-05-23T07:54:03;1.20;;;1.00;;
283;SDS011;125;52.516;13.426;2023-05-23T07:56:31;1.50;;;1.40;;
283;SDS011;125;52.516;13.426;2023-05-23T07:58:57;2.77;;;1.70;;
283;SDS011;125;52.516;13.426;2023-05-23T08:01:24;2.47;;;1.53;;
283;SDS011;125;52.516;13.426;2023-05-23T08:03:53;2.90;;;1.47;;
283;SDS011;125;52.516;13.426;2023-05-23T08:06:20;1.87;;;1.30;;
283;SDS011;125;52.516;13.426;2023-05-23T08:08:49;2.67;;;1.90;;
283;SDS011;125;52.516;13.426;2023-05-23T08:11:16;1.40;;;1.03;;
283;SDS011;125;52.516;13.426;2023-05-23T08:13:43;1.87;;;1.67;;
283;SDS011;125;52.516;13.426;2023-05-23T08:16:10;2.00;;;1.07;;
283;SDS011;125;52.516;13.426;2023-05-23T08:18:37;3.17;;;1.03;;
283;SDS011;125;52.516;13.426;2023-05-23T08:21:05;2.50;;;1.27;;
283;SDS011;125;52.516;13.426;2023-05-23T08:23:32;2.70;;;1.17;;
283;SDS011;125;52.516;13.426;2023-05-23T08:25:59;1.67;;;1.03;;
283;SDS011;125;52.516;13.426;2023-05-23T08:28:26;3.03;;;1.93;;
283;SDS011;125;52.516;13.426;2023-05-23T08:30:53;3.77;;;0.83;;
283;SDS011;125;52.516;13.426;2023-05-23T08:33:22;2.40;;;0.97;;
283;SDS011;125;52.516;13.426;2023-05-23T08:35:49;2.70;;;2.33;;
283;SDS011;125;52.516;13.426;2023-05-23T08:38:17;2.60;;;1.77;;
283;SDS011;125;52.516;13.426;2023-05-23T08:40:48;3.00;;;2.60;;
283;SDS011;125;52.516;13.426;2023-05-23T08:43:15;9.77;;;1.50;;
283;SDS011;125;52.516;13.426;2023-05-23T08:45:42;1.63;;;1.53;;
283;SDS011;125;52.516;13.426;2023-05-23T08:48:09;2.50;;;2.30;;
283;SDS011;125;52.516;13.426;2023-05-23T08:50:39;3.50;;;1.60;;
283;SDS011;125;52.516;13.426;2023-05-23T08:53:06;1.83;;;1.13;;
283;SDS011;125;52.516;13.426;2023-05-23T08:55:37;1.57;;;1.47;;
283;SDS011;125;52.516;13.426;2023-05-23T08:58:04;1.83;;;1.30;;
283;SDS011;125;52.516;13.426;2023-05-23T09:00:32;1.73;;;1.33;;
283;SDS011;125;52.516;13.426;2023-05-23T09:02:59;1.70;;;1.50;;
283;SDS011;125;52.516;13.426;2023-05-23T09:05:26;2.27;;;1.33;;
283;SDS011;125;52.516;13.426;2023-05-23T09:07:53;3.07;;;1.17;;
283;SDS011;125;52.516;13.426;2023-05-23T09:10:21;1.67;;;1.60;;
283;SDS011;125;52.516;13.426;2023-05-23T09:12:50;1.30;;;0.80;;
283;SDS011;125;52.516;13.426;2023-05-23T09:15:17;3.83;;;1.57;;
283;SDS011;125;52.516;13.426;2023-05-23T09:17:44;1.40;;;1.10;;
283;SDS011;125;52.516;13.426;2023-05-23T09:20:11;1.70;;;1.33;;
283;SDS011;125;52.516;13.426;2023-05-23T09:22:39;2.40;;;1.30;;
283;SDS011;125;52.516;13.426;2023-05-23T09:25:06;2.60;;;1.80;;
283;SDS011;125;52.516;13.426;2023-05-23T09:27:33;2.10;;;1.97;;
283;SDS011;125;52.516;13.426;2023-05-23T09:30:05;2.43;;;1.80;;
283;SDS011;125;52.516;13.426;2023-05-23T09:32:33;2.83;;;2.00;;
283;SDS011;125;52.516;13.426;2023-05-23T09:35:00;2.33;;;2.13;;
283;SDS011;125;52.516;13.426;2023-05-23T09:37:28;1.87;;;1.70;;
283;SDS011;125;52.516;13.426;2023-05-23T09:39:56;3.00;;;1.83;;
283;SDS011;125;52.516;13.426;2023-05-23T09:42:24;2.40;;;1.87;;
283;SDS011;125;52.516;13.426;2023-05-23T09:44:52;2.53;;;1.70;;
283;SDS011;125;52.516;13.426;2023-05-23T09:47:20;4.07;;;3.67;;
283;SDS011;125;52.516;13.426;2023-05-23T09:49:47;1.47;;;1.17;;
283;SDS011;125;52.516;13.426;2023-05-23T09:52:15;3.00;;;1.90;;
283;SDS011;125;52.516;13.426;2023-05-23T09:54:44;2.27;;;1.33;;
283;SDS011;125;52.516;13.426;2023-05-23T09:57:13;3.07;;;2.10;;
283;SDS011;125;52.516;13.426;2023-05-23T09:59:40;2.03;;;1.23;;
283;SDS011;125;52.516;13.426;2023-05-23T10:02:10;3.23;;;2.10;;
283;SDS011;125;52.516;13.426;2023-05-23T10:04:38;3.33;;;2.20;;
283;SDS011;125;52.516;13.426;2023-05-23T10:07:09;2.10;;;1.07;;
283;SDS011;125;52.516;13.426;2023-05-23T10:09:38;3.93;;;2.60;;
283;SDS011;125;52.516;13.426;2023-05-23T10:12:34;2.87;;;1.80;;
283;SDS011;125;52.516;13.426;2023-05-23T10:15:03;2.60;;;1.90;;
283;SDS011;125;52.516;13.426;2023-05-23T10:17:32;3.73;;;2.23;;
283;SDS011;125;52.516;13.426;2023-05-23T10:20:04;3.47;;;2.10;;
283;SDS011;125;52.516;13.426;2023-05-23T10:22:34;3.33;;;2.00;;
283;SDS011;125;52.516;13.426;2023-05-23T10:25:02;1.30;;;1.20;;
283;SDS011;125;52.516;13.426;2023-05-23T10:27:29;4.23;;;2.23;;
283;SDS011;125;52.516;13.426;2023-05-23T10:29:56;2.77;;;2.37;;
283;SDS011;125;52.516;13.426;2023-05-23T10:32:24;5.47;;;1.80;;
283;SDS011;125;52.516;13.426;2023-05-23T10:34:53;1.87;;;1.60;;
283;SDS011;125;52.516;13.426;2023-05-23T10:37:23;2.33;;;2.13;;
283;SDS011;125;52.516;13.426;2023-05-23T10:39:55;1.83;;;1.17;;
283;SDS011;125;52.516;13.426;2023-05-23T10:42:27;3.33;;;1.90;;
283;SDS011;125;52.516;13.426;2023-05-23T10:47:37;2.27;;;1.90;;
283;SDS011;125;52.516;13.426;2023-05-23T10:50:05;1.67;;;1.57;;
283;SDS011;125;52.516;13.426;2023-05-23T10:52:37;2.57;;;1.70;;
283;SDS011;125;52.516;13.426;2023-05-23T10:55:10;3.67;;;3.47;;
283;SDS011;125;52.516;13.426;2023-05-23T10:57:38;4.10;;;3.50;;
283;SDS011;125;52.516;13.426;2023-05-23T11:00:08;4.80;;;2.67;;
283;SDS011;125;52.516;13.426;2023-05-23T11:02:37;7.77;;;3.83;;
283;SDS011;125;52.516;13.426;2023-05-23T11:05:18;4.40;;;3.53;;
283;SDS011;125;52.516;13.426;2023-05-23T11:07:47;2.07;;;1.90;;
283;SDS011;125;52.516;13.426;2023-05-23T11:10:31;3.20;;;2.90;;
283;SDS011;125;52.516;13.426;2023-05-23T11:13:04;4.43;;;3.50;;
283;SDS011;125;52.516;13.426;2023-05-23T11:15:40;4.90;;;3.77;;
283;SDS011;125;52.516;13.426;2023-05-23T11:18:09;3.77;;;2.63;;
283;SDS011;125;52.516;13.426;2023-05-23T11:20:36;2.97;;;2.20;;
283;SDS011;125;52.516;13.426;2023-05-23T11:23:07;4.00;;;3.17;;
283;SDS011;125;52.516;13.426;2023-05-23T11:25:40;8.53;;;5.77;;
283;SDS011;125;52.516;13.426;2023-05-23T11:28:08;2.50;;;2.30;;
283;SDS011;125;52.516;13.426;2023-05-23T11:30:35;2.77;;;2.57;;
283;SDS011;125;52.516;13.426;2023-05-23T11:33:06;2.93;;;2.73;;
283;SDS011;125;52.516;13.426;2023-05-23T11:35:34;3.40;;;2.13;;
283;SDS011;125;52.516;13.426;2023-05-23T11:38:02;3.67;;;3.43;;
283;SDS011;125;52.516;13.426;2023-05-23T11:40:32;5.47;;;3.20;;
283;SDS011;125;52.516;13.426;2023-05-23T11:43:00;5.70;;;4.70;;
283;SDS011;125;52.516;13.426;2023-05-23T11:45:28;6.63;;;4.80;;
283;SDS011;125;52.516;13.426;2023-05-23T11:47:56;6.23;;;5.90;;
283;SDS011;125;52.516;13.426;2023-05-23T11:50:23;7.73;;;5.10;;
283;SDS011;125;52.516;13.426;2023-05-23T11:52:50;4.47;;;4.07;;
283;SDS011;125;52.516;13.426;2023-05-23T11:55:17;5.37;;;4.90;;
283;SDS011;125;52.516;13.426;2023-05-23T11:57:46;10.00;;;6.90;;
283;SDS011;125;52.516;13.426;2023-05-23T12:00:13;9.80;;;3.63;;
283;SDS011;125;52.516;13.426;2023-05-23T12:02:41;3.67;;;3.47;;
283;SDS011;125;52.516;13.426;2023-05-23T12:05:08;6.10;;;3.63;;
283;SDS011;125;52.516;13.426;2023-05-23T12:07:38;4.20;;;3.97;;
283;SDS011;125;52.516;13.426;2023-05-23T12:10:06;4.83;;;4.53;;
283;SDS011;125;52.516;13.426;2023-05-23T12:12:33;4.33;;;3.60;;
283;SDS011;125;52.516;13.426;2023-05-23T12:15:03;3.60;;;3.40;;
283;SDS011;125;52.516;13.426;2023-05-23T12:17:30;5.03;;;4.50;;
283;SDS011;125;52.516;13.426;2023-05-23T12:19:58;7.23;;;5.10;;
283;SDS011;125;52.516;13.426;2023-05-23T12:22:25;6.50;;;5.10;;
283;SDS011;125;52.516;13.426;2023-05-23T12:24:52;7.30;;;4.30;;
283;SDS011;125;52.516;13.426;2023-05-23T12:27:25;5.40;;;3.20;;
283;SDS011;125;52.516;13.426;2023-05-23T12:29:54;3.20;;;2.83;;
283;SDS011;125;52.516;13.426;2023-05-23T12:32:31;6.80;;;5.57;;
283;SDS011;125;52.516;13.426;2023-05-23T12:34:58;3.23;;;3.03;;
283;SDS011;125;52.516;13.426;2023-05-23T12:37:25;14.23;;;5.47;;
283;SDS011;125;52.516;13.426;2023-05-23T12:39:53;4.50;;;3.67;;
283;SDS011;125;52.516;13.426;2023-05-23T12:42:21;4.70;;;3.57;;
283;SDS011;125;52.516;13.426;2023-05-23T12:44:49;4.00;;;3.17;;
283;SDS011;125;52.516;13.426;2023-05-23T12:47:16;3.23;;;3.03;;
283;SDS011;125;52.516;13.426;2023-05-23T12:49:45;2.63;;;2.43;;
283;SDS011;125;52.516;13.426;2023-05-23T12:52:12;7.63;;;4.90;;
283;SDS011;125;52.516;13.426;2023-05-23T12:54:39;4.67;;;4.20;;
283;SDS011;125;52.516;13.426;2023-05-23T12:57:06;3.77;;;3.57;;
283;SDS011;125;52.516;13.426;2023-05-23T12:59:33;4.63;;;2.95;;
283;SDS011;125;52.516;13.426;2023-05-23T13:02:00;4.27;;;3.63;;
283;SDS011;125;52.516;13.426;2023-05-23T13:04:27;3.70;;;3.53;;
283;SDS011;125;52.516;13.426;2023-05-23T13:06:56;5.87;;;4.63;;
283;SDS011;125;52.516;13.426;2023-05-23T13:09:22;4.07;;;2.47;;
283;SDS011;125;52.516;13.426;2023-05-23T13:11:50;3.80;;;3.07;;
283;SDS011;125;52.516;13.426;2023-05-23T13:14:18;3.00;;;2.53;;
283;SDS011;125;52.516;13.426;2023-05-23T13:16:45;3.80;;;2.67;;
283;SDS011;125;52.516;13.426;2023-05-23T13:19:12;3.57;;;2.77;;
283;SDS011;125;52.516;13.426;2023-05-23T13:21:39;4.90;;;3.67;;
283;SDS011;125;52.516;13.426;2023-05-23T13:24:08;7.10;;;4.50;;
283;SDS011;125;52.516;13.426;2023-05-23T13:26:35;5.50;;;3.70;;
283;SDS011;125;52.516;13.426;2023-05-23T13:29:02;2.80;;;2.60;;
283;SDS011;125;52.516;13.426;2023-05-23T13:31:29;5.70;;;5.40;;
283;SDS011;125;52.516;13.426;2023-05-23T13:33:56;4.90;;;4.60;;
283;SDS011;125;52.516;13.426;2023-05-23T13:36:23;4.60;;;3.13;;
283;SDS011;125;52.516;13.426;2023-05-23T13:38:50;4.87;;;3.80;;
283;SDS011;125;52.516;13.426;2023-05-23T13:41:18;3.60;;;2.90;;
283;SDS011;125;52.516;13.426;2023-05-23T13:43:45;4.30;;;4.03;;
283;SDS011;125;52.516;13.426;2023-05-23T13:46:12;9.83;;;3.50;;
283;SDS011;125;52.516;13.426;2023-05-23T13:48:39;5.20;;;4.90;;
283;SDS011;125;52.516;13.426;2023-05-23T13:51:07;5.53;;;4.73;;
283;SDS011;125;52.516;13.426;2023-05-23T13:53:34;4.90;;;3.63;;
283;SDS011;125;52.516;13.426;2023-05-23T13:56:01;3.17;;;2.97;;
283;SDS011;125;52.516;13.426;2023-05-23T13:58:29;2.00;;;1.53;;
283;SDS011;125;52.516;13.426;2023-05-23T14:00:56;4.73;;;2.87;;
283;SDS011;125;52.516;13.426;2023-05-23T14:03:23;10.83;;;5.17;;
283;SDS011;125;52.516;13.426;2023-05-23T14:05:50;6.13;;;3.53;;
283;SDS011;125;52.516;13.426;2023-05-23T14:08:17;2.53;;;2.33;;
283;SDS011;125;52.516;13.426;2023-05-23T14:10:44;11.00;;;6.27;;
283;SDS011;125;52.516;13.426;2023-05-23T14:13:11;3.10;;;3.00;;
283;SDS011;125;52.516;13.426;2023-05-23T14:15:41;4.30;;;3.40;;
283;SDS011;125;52.516;13.426;2023-05-23T14:18:08;4.63;;;2.87;;
283;SDS011;125;52.516;13.426;2023-05-23T14:20:35;4.40;;;4.10;;
283;SDS011;125;52.516;13.426;2023-05-23T14:23:02;9.47;;;5.80;;
283;SDS011;125;52.516;13.426;2023-05-23T14:25:29;5.53;;;4.17;;
283;SDS011;125;52.516;13.426;2023-05-23T14:27:56;4.30;;;4.00;;
283;SDS011;125;52.516;13.426;2023-05-23T14:30:23;3.90;;;2.60;;
283;SDS011;125;52.516;13.426;2023-05-23T14:32:52;5.77;;;5.20;;
283;SDS011;125;52.516;13.426;2023-05-23T14:35:19;3.60;;;3.40;;
283;SDS011;125;52.516;13.426;2023-05-23T14:37:46;4.53;;;3.20;;
283;SDS011;125;52.516;13.426;2023-05-23T14:40:13;5.17;;;4.47;;
283;SDS011;125;52.516;13.426;2023-05-23T14:42:41;4.83;;;3.70;;
283;SDS011;125;52.516;13.426;2023-05-23T14:45:08;2.80;;;2.30;;
283;SDS011;125;52.516;13.426;2023-05-23T14:47:35;4.33;;;3.40;;
283;SDS011;125;52.516;13.426;2023-05-23T14:50:03;5.47;;;2.53;;
283;SDS011;125;52.516;13.426;2023-05-23T14:52:30;4.53;;;2.50;;
283;SDS011;125;52.516;13.426;2023-05-23T14:54:57;4.10;;;3.87;;
283;SDS011;125;52.516;13.426;2023-05-23T14:57:25;4.40;;;2.60;;
283;SDS011;125;52.516;13.426;2023-05-23T14:59:51;4.87;;;3.50;;
283;SDS011;125;52.516;13.426;2023-05-23T15:02:18;3.27;;;3.13;;
283;SDS011;125;52.516;13.426;2023-05-23T15:04:45;4.77;;;3.83;;
283;SDS011;125;52.516;13.426;2023-05-23T15:07:14;4.13;;;3.53;;
283;SDS011;125;52.516;13.426;2023-05-23T15:09:42;2.37;;;2.17;;
283;SDS011;125;52.516;13.426;2023-05-23T15:12:09;1.90;;;1.80;;
283;SDS011;125;52.516;13.426;2023-05-23T15:14:37;1.20;;;1.03;;
283;SDS011;125;52.516;13.426;2023-05-23T15:17:04;2.90;;;2.30;;
283;SDS011;125;52.516;13.426;2023-05-23T15:19:33;1.87;;;1.77;;
283;SDS011;125;52.516;13.426;2023-05-23T15:22:00;1.93;;;1.80;;
283;SDS011;125;52.516;13.426;2023-05-23T15:24:28;4.30;;;3.13;;
283;SDS011;125;52.516;13.426;2023-05-23T15:26:55;1.50;;;1.33;;
283;SDS011;125;52.516;13.426;2023-05-23T15:29:22;1.90;;;1.47;;
283;SDS011;125;52.516;13.426;2023-05-23T15:31:49;1.83;;;1.70;;
283;SDS011;125;52.516;13.426;2023-05-23T15:34:16;2.77;;;2.57;;
283;SDS011;125;52.516;13.426;2023-05-23T15:36:44;2.40;;;2.20;;